Mandan, North Dakota
Current Conditions -  °F | °C
As of 6:15 AM on Thursday 27 Nov 2014 (Local Time) from KY19 Reporting Station
Overcast Overcast  
Wind Chill: -14°   Ceiling: 1400
Heat Index: -2°   Visibility: 10mi
Dew Point: -8°   Wind: 6mph
Humidity: 78%   Direction: 140°SE
Pressure: 30.31"   Gusts: NA
Location:  46.83°N, 100.88°W
Report Text: KY19 271315Z AUTO 14005KT 10SM OVC014 M19/M22 A3031 RMK AO2
Loading
Personal Weather Stations






























Interactive Weather Map New forecast layout! Learn more

10-Day Weather Forecast

Advertisements
Track Severe Weather on mobile